SBI2571 UUDD-USMU
Flight info
| Callsign | SBI2571 |
|---|---|
| Flight time | 2h 45m |
| Altitude | 37000 |
| Route | RILPO4M RILPO T753 TUNOB T791 UHT N742 MEMBA W128 ADMAT ADMAT5E |
| Aircraft | A320/M-SDE3FGHIRWY/LB1 |
Departure
| Time | 2026-05-07 08:16 |
|---|---|
| Airport | Domodedovo International Airport (UUDD) |
Arrival
| Time | 2026-05-07 11:01 |
|---|---|
| Airport | Novy Urengoy Airport (USMU) |
| Time | Latitude | Longitude | Altitude | Speed | Heading |
|---|---|---|---|---|---|
| 2026-05-07 08:03 | 55.41233 | 37.90128 | 572 ft | 0 kts | 234° |
| 2026-05-07 08:09 | 55.41235 | 37.90135 | 572 ft | 2 kts | 234° |
| 2026-05-07 08:09 | 55.41245 | 37.90158 | 578 ft | 2 kts | 234° |
| 2026-05-07 08:10 | 55.41262 | 37.90218 | 573 ft | 7 kts | 299° |
| 2026-05-07 08:10 | 55.41225 | 37.90272 | 573 ft | 6 kts | 327° |
| 2026-05-07 08:10 | 55.41188 | 37.90313 | 570 ft | 7 kts | 327° |
| 2026-05-07 08:10 | 55.41144 | 37.90363 | 573 ft | 6 kts | 327° |
| 2026-05-07 08:11 | 55.41141 | 37.90366 | 572 ft | 0 kts | 327° |
| 2026-05-07 08:12 | 55.41154 | 37.90294 | 569 ft | 12 kts | 257° |
| 2026-05-07 08:12 | 55.41090 | 37.90115 | 571 ft | 22 kts | 236° |
| 2026-05-07 08:12 | 55.40987 | 37.89849 | 569 ft | 30 kts | 236° |
| 2026-05-07 08:12 | 55.40910 | 37.89636 | 570 ft | 23 kts | 236° |
| 2026-05-07 08:13 | 55.40781 | 37.89408 | 574 ft | 22 kts | 197° |
| 2026-05-07 08:13 | 55.40697 | 37.89408 | 571 ft | 14 kts | 214° |
| 2026-05-07 08:13 | 55.40587 | 37.89412 | 570 ft | 22 kts | 148° |
| 2026-05-07 08:13 | 55.40425 | 37.89602 | 565 ft | 33 kts | 146° |
| 2026-05-07 08:14 | 55.40214 | 37.89852 | 558 ft | 40 kts | 144° |
| 2026-05-07 08:14 | 55.39966 | 37.90154 | 552 ft | 46 kts | 146° |
| 2026-05-07 08:14 | 55.39706 | 37.90463 | 546 ft | 23 kts | 146° |
| 2026-05-07 08:14 | 55.39556 | 37.90415 | 544 ft | 30 kts | 242° |
| 2026-05-07 08:15 | 55.39623 | 37.90203 | 544 ft | 0 kts | 324° |
| 2026-05-07 08:15 | 55.39805 | 37.89980 | 548 ft | 75 kts | 325° |
| 2026-05-07 08:16 | 55.40468 | 37.89188 | 565 ft | 152 kts | 326° |
| 2026-05-07 08:16 | 55.41465 | 37.88013 | 727 ft | 196 kts | 324° |
| 2026-05-07 08:16 | 55.42597 | 37.86775 | 1276 ft | 202 kts | 327° |
| 2026-05-07 08:16 | 55.43607 | 37.85450 | 1697 ft | 167 kts | 307° |
| 2026-05-07 08:17 | 55.44354 | 37.83803 | 2126 ft | 179 kts | 301° |
| 2026-05-07 08:17 | 55.45124 | 37.81980 | 2597 ft | 192 kts | 302° |
| 2026-05-07 08:17 | 55.45952 | 37.80076 | 3063 ft | 204 kts | 303° |
| 2026-05-07 08:17 | 55.46980 | 37.78224 | 3508 ft | 217 kts | 318° |
| 2026-05-07 08:18 | 55.48394 | 37.76929 | 3956 ft | 241 kts | 333° |
| 2026-05-07 08:18 | 55.50022 | 37.75836 | 4423 ft | 258 kts | 335° |
| 2026-05-07 08:18 | 55.51757 | 37.74900 | 4864 ft | 266 kts | 348° |
| 2026-05-07 08:18 | 55.53625 | 37.75205 | 5303 ft | 277 kts | 17° |
| 2026-05-07 08:19 | 55.55354 | 37.76799 | 5761 ft | 282 kts | 27° |
| 2026-05-07 08:19 | 55.57050 | 37.78573 | 6217 ft | 284 kts | 27° |
| 2026-05-07 08:19 | 55.58754 | 37.80350 | 6644 ft | 286 kts | 27° |
| 2026-05-07 08:19 | 55.60474 | 37.82132 | 7068 ft | 286 kts | 27° |
| 2026-05-07 08:20 | 55.62200 | 37.83911 | 7516 ft | 293 kts | 27° |
| 2026-05-07 08:20 | 55.64007 | 37.85742 | 7962 ft | 311 kts | 24° |
| 2026-05-07 08:20 | 55.66112 | 37.86795 | 8421 ft | 320 kts | 358° |
| 2026-05-07 08:20 | 55.68339 | 37.86514 | 8896 ft | 324 kts | 352° |
| 2026-05-07 08:21 | 55.70605 | 37.86343 | 9352 ft | 327 kts | 356° |
| 2026-05-07 08:21 | 55.72896 | 37.86356 | 9820 ft | 329 kts | 357° |
| 2026-05-07 08:21 | 55.75193 | 37.86432 | 10252 ft | 332 kts | 357° |
| 2026-05-07 08:21 | 55.77511 | 37.86503 | 10694 ft | 334 kts | 357° |
| 2026-05-07 08:22 | 55.79846 | 37.86541 | 11137 ft | 336 kts | 356° |
| 2026-05-07 08:22 | 55.82188 | 37.86545 | 11570 ft | 338 kts | 356° |
| 2026-05-07 08:22 | 55.84556 | 37.86523 | 12050 ft | 341 kts | 355° |
| 2026-05-07 08:22 | 55.86933 | 37.86888 | 12509 ft | 350 kts | 13° |
| 2026-05-07 08:23 | 55.89234 | 37.88440 | 12991 ft | 355 kts | 19° |
| 2026-05-07 08:23 | 55.91531 | 37.90128 | 13471 ft | 358 kts | 19° |
| 2026-05-07 08:23 | 55.93840 | 37.91853 | 13918 ft | 361 kts | 19° |
| 2026-05-07 08:23 | 55.96171 | 37.93603 | 14356 ft | 364 kts | 19° |
| 2026-05-07 08:24 | 55.98516 | 37.95347 | 14791 ft | 366 kts | 17° |
| 2026-05-07 08:24 | 56.00968 | 37.96205 | 15238 ft | 357 kts | 352° |
| 2026-05-07 08:24 | 56.03384 | 37.95439 | 15691 ft | 351 kts | 339° |
| 2026-05-07 08:24 | 56.05689 | 37.94004 | 16149 ft | 349 kts | 333° |
| 2026-05-07 08:25 | 56.07915 | 37.92258 | 16620 ft | 349 kts | 330° |
| 2026-05-07 08:25 | 56.10124 | 37.90407 | 17098 ft | 351 kts | 330° |
| 2026-05-07 08:25 | 56.12359 | 37.88564 | 17577 ft | 354 kts | 330° |
| 2026-05-07 08:25 | 56.14720 | 37.87217 | 18056 ft | 366 kts | 348° |
| 2026-05-07 08:26 | 56.19872 | 37.87312 | 18923 ft | 378 kts | 360° |
| 2026-05-07 08:26 | 56.22501 | 37.87795 | 19361 ft | 381 kts | 1° |
| 2026-05-07 08:26 | 56.25146 | 37.88353 | 19803 ft | 383 kts | 2° |
| 2026-05-07 08:27 | 56.27798 | 37.88895 | 20259 ft | 385 kts | 1° |
| 2026-05-07 08:27 | 56.30475 | 37.89384 | 20704 ft | 387 kts | 0° |
| 2026-05-07 08:27 | 56.33164 | 37.89815 | 21169 ft | 389 kts | 0° |
| 2026-05-07 08:27 | 56.35876 | 37.90204 | 21641 ft | 391 kts | 359° |
| 2026-05-07 08:28 | 56.38597 | 37.90569 | 22120 ft | 394 kts | 359° |
| 2026-05-07 08:28 | 56.41338 | 37.90930 | 22611 ft | 396 kts | 359° |
| 2026-05-07 08:28 | 56.44132 | 37.91292 | 23113 ft | 399 kts | 359° |
| 2026-05-07 08:28 | 56.46879 | 37.91650 | 23592 ft | 402 kts | 359° |
| 2026-05-07 08:29 | 56.49715 | 37.92031 | 24012 ft | 404 kts | 360° |
| 2026-05-07 08:29 | 56.52527 | 37.92416 | 24444 ft | 407 kts | 360° |
| 2026-05-07 08:29 | 56.55357 | 37.92805 | 24880 ft | 409 kts | 359° |
| 2026-05-07 08:29 | 56.58172 | 37.93190 | 25314 ft | 411 kts | 359° |
| 2026-05-07 08:30 | 56.61060 | 37.93583 | 25772 ft | 412 kts | 359° |
| 2026-05-07 08:30 | 56.63923 | 37.93971 | 26239 ft | 413 kts | 359° |
| 2026-05-07 08:30 | 56.66794 | 37.94375 | 26698 ft | 415 kts | 1° |
| 2026-05-07 08:30 | 56.69585 | 37.95608 | 27157 ft | 425 kts | 20° |
| 2026-05-07 08:31 | 56.72161 | 37.98334 | 27643 ft | 431 kts | 33° |
| 2026-05-07 08:31 | 56.74428 | 38.01937 | 28128 ft | 435 kts | 42° |
| 2026-05-07 08:31 | 56.76500 | 38.06084 | 28633 ft | 437 kts | 47° |
| 2026-05-07 08:31 | 56.78450 | 38.10327 | 29135 ft | 436 kts | 47° |
| 2026-05-07 08:32 | 56.80398 | 38.14491 | 29646 ft | 435 kts | 45° |
| 2026-05-07 08:32 | 56.82429 | 38.18572 | 30132 ft | 433 kts | 43° |
| 2026-05-07 08:32 | 56.84519 | 38.22504 | 30573 ft | 431 kts | 41° |
| 2026-05-07 08:32 | 56.86656 | 38.26343 | 31025 ft | 429 kts | 40° |
| 2026-05-07 08:33 | 56.88836 | 38.30025 | 31482 ft | 426 kts | 38° |
| 2026-05-07 08:33 | 56.91083 | 38.33535 | 31950 ft | 423 kts | 36° |
| 2026-05-07 08:33 | 56.93353 | 38.36942 | 32427 ft | 421 kts | 35° |
| 2026-05-07 08:33 | 56.95620 | 38.40320 | 32911 ft | 418 kts | 36° |
| 2026-05-07 08:34 | 56.97854 | 38.43698 | 33406 ft | 415 kts | 36° |
| 2026-05-07 08:34 | 57.00055 | 38.47096 | 33904 ft | 412 kts | 37° |
| 2026-05-07 08:34 | 57.02233 | 38.50511 | 34220 ft | 412 kts | 37° |
| 2026-05-07 08:34 | 57.04408 | 38.53951 | 34445 ft | 414 kts | 37° |
| 2026-05-07 08:35 | 57.06593 | 38.57418 | 34676 ft | 416 kts | 37° |
| 2026-05-07 08:35 | 57.08788 | 38.60907 | 34900 ft | 417 kts | 38° |
| 2026-05-07 08:35 | 57.10990 | 38.64409 | 35127 ft | 419 kts | 38° |
| 2026-05-07 08:35 | 57.13197 | 38.67919 | 35335 ft | 420 kts | 38° |
| 2026-05-07 08:36 | 57.15423 | 38.71458 | 35550 ft | 422 kts | 38° |
| 2026-05-07 08:36 | 57.17649 | 38.75001 | 35733 ft | 423 kts | 38° |
| 2026-05-07 08:36 | 57.19878 | 38.78558 | 35935 ft | 425 kts | 38° |
| 2026-05-07 08:36 | 57.22115 | 38.82141 | 36134 ft | 426 kts | 38° |
| 2026-05-07 08:37 | 57.24339 | 38.85701 | 36315 ft | 428 kts | 38° |
| 2026-05-07 08:37 | 57.25859 | 38.88135 | 36441 ft | 429 kts | 38° |
| 2026-05-07 08:37 | 57.28114 | 38.91747 | 36620 ft | 430 kts | 38° |
| 2026-05-07 08:37 | 57.31142 | 38.96609 | 36866 ft | 431 kts | 38° |
| 2026-05-07 08:38 | 57.35709 | 39.03972 | 36950 ft | 441 kts | 38° |
| 2026-05-07 08:38 | 57.40367 | 39.11509 | 36949 ft | 452 kts | 38° |
| 2026-05-07 08:39 | 57.45150 | 39.19272 | 36958 ft | 462 kts | 38° |
| 2026-05-07 08:39 | 57.50030 | 39.27234 | 36962 ft | 472 kts | 38° |
| 2026-05-07 08:40 | 57.55010 | 39.35359 | 36966 ft | 480 kts | 38° |
| 2026-05-07 08:40 | 57.59246 | 39.42282 | 36971 ft | 487 kts | 38° |
| 2026-05-07 08:41 | 57.64376 | 39.50676 | 36979 ft | 492 kts | 39° |
| 2026-05-07 08:41 | 57.69531 | 39.59162 | 36970 ft | 494 kts | 39° |
| 2026-05-07 08:42 | 57.74694 | 39.67701 | 36980 ft | 495 kts | 39° |
| 2026-05-07 08:42 | 57.79822 | 39.76219 | 36985 ft | 495 kts | 39° |
| 2026-05-07 08:43 | 57.84988 | 39.84828 | 36996 ft | 496 kts | 39° |
| 2026-05-07 08:43 | 57.90144 | 39.93464 | 37006 ft | 497 kts | 39° |
| 2026-05-07 08:44 | 57.95283 | 40.02160 | 37018 ft | 497 kts | 39° |
| 2026-05-07 08:44 | 58.00416 | 40.10920 | 37022 ft | 497 kts | 39° |
| 2026-05-07 08:45 | 58.05547 | 40.19692 | 37031 ft | 498 kts | 39° |
| 2026-05-07 08:45 | 58.10680 | 40.28493 | 37040 ft | 498 kts | 39° |
| 2026-05-07 08:46 | 58.15816 | 40.37331 | 37051 ft | 499 kts | 39° |
| 2026-05-07 08:46 | 58.20950 | 40.46177 | 37052 ft | 499 kts | 39° |
| 2026-05-07 08:47 | 58.26108 | 40.54993 | 37063 ft | 499 kts | 39° |
| 2026-05-07 08:47 | 58.31270 | 40.63825 | 37067 ft | 500 kts | 39° |
| 2026-05-07 08:48 | 58.36421 | 40.72709 | 37075 ft | 500 kts | 39° |
| 2026-05-07 08:48 | 58.41571 | 40.81653 | 37080 ft | 500 kts | 39° |
| 2026-05-07 08:49 | 58.46719 | 40.90612 | 37085 ft | 501 kts | 39° |
| 2026-05-07 08:49 | 58.51873 | 40.99604 | 37094 ft | 501 kts | 39° |
| 2026-05-07 08:50 | 58.57015 | 41.08631 | 37098 ft | 501 kts | 39° |
| 2026-05-07 08:50 | 58.62145 | 41.17693 | 37103 ft | 502 kts | 39° |
| 2026-05-07 08:51 | 58.67258 | 41.26752 | 37111 ft | 502 kts | 39° |
| 2026-05-07 08:51 | 58.72401 | 41.35889 | 37114 ft | 503 kts | 40° |
| 2026-05-07 08:52 | 58.77592 | 41.44902 | 37115 ft | 500 kts | 33° |
| 2026-05-07 08:52 | 58.83199 | 41.52842 | 37120 ft | 500 kts | 32° |
| 2026-05-07 08:53 | 58.88802 | 41.60838 | 37124 ft | 500 kts | 32° |
| 2026-05-07 08:53 | 58.94374 | 41.68815 | 37132 ft | 500 kts | 32° |
| 2026-05-07 08:54 | 58.99979 | 41.76870 | 37136 ft | 501 kts | 32° |
| 2026-05-07 08:54 | 59.05571 | 41.84939 | 37138 ft | 501 kts | 32° |
| 2026-05-07 08:55 | 59.11162 | 41.93044 | 37143 ft | 501 kts | 33° |
| 2026-05-07 08:55 | 59.16758 | 42.01181 | 37145 ft | 502 kts | 32° |
| 2026-05-07 08:56 | 59.22349 | 42.09335 | 37147 ft | 502 kts | 32° |
| 2026-05-07 08:56 | 59.27934 | 42.17520 | 37146 ft | 502 kts | 33° |
| 2026-05-07 08:57 | 59.33524 | 42.25762 | 37145 ft | 503 kts | 33° |
| 2026-05-07 08:57 | 59.38989 | 42.34344 | 37134 ft | 508 kts | 43° |
| 2026-05-07 08:58 | 59.43747 | 42.44631 | 37138 ft | 509 kts | 45° |
| 2026-05-07 08:58 | 59.48495 | 42.54973 | 37139 ft | 509 kts | 45° |
| 2026-05-07 08:59 | 59.53244 | 42.65337 | 37131 ft | 510 kts | 45° |
| 2026-05-07 08:59 | 59.57977 | 42.75771 | 37130 ft | 510 kts | 45° |
| 2026-05-07 09:00 | 59.62704 | 42.86237 | 37136 ft | 511 kts | 45° |
| 2026-05-07 09:00 | 59.67440 | 42.96724 | 37133 ft | 511 kts | 45° |
| 2026-05-07 09:01 | 59.72177 | 43.07254 | 37136 ft | 512 kts | 45° |
| 2026-05-07 09:01 | 59.76896 | 43.17830 | 37142 ft | 512 kts | 45° |
| 2026-05-07 09:02 | 59.81624 | 43.28415 | 37136 ft | 512 kts | 45° |
| 2026-05-07 09:02 | 59.86353 | 43.39032 | 37136 ft | 512 kts | 45° |
| 2026-05-07 09:03 | 59.91064 | 43.49691 | 37136 ft | 513 kts | 45° |
| 2026-05-07 09:03 | 59.95764 | 43.60384 | 37142 ft | 513 kts | 45° |
| 2026-05-07 09:04 | 60.00473 | 43.71098 | 37138 ft | 513 kts | 45° |
| 2026-05-07 09:04 | 60.05176 | 43.81839 | 37140 ft | 513 kts | 45° |
| 2026-05-07 09:05 | 60.09871 | 43.92639 | 37140 ft | 514 kts | 45° |
| 2026-05-07 09:05 | 60.14556 | 44.03475 | 37140 ft | 514 kts | 45° |
| 2026-05-07 09:06 | 60.19241 | 44.14337 | 37138 ft | 514 kts | 45° |
| 2026-05-07 09:06 | 60.23913 | 44.25234 | 37134 ft | 514 kts | 45° |
| 2026-05-07 09:07 | 60.28581 | 44.36173 | 37136 ft | 515 kts | 46° |
| 2026-05-07 09:07 | 60.33242 | 44.47133 | 37141 ft | 515 kts | 46° |
| 2026-05-07 09:08 | 60.37905 | 44.58154 | 37139 ft | 515 kts | 46° |
| 2026-05-07 09:08 | 60.42554 | 44.69196 | 37136 ft | 516 kts | 46° |
| 2026-05-07 09:09 | 60.47195 | 44.80275 | 37133 ft | 516 kts | 46° |
| 2026-05-07 09:09 | 60.51829 | 44.91401 | 37133 ft | 517 kts | 46° |
| 2026-05-07 09:10 | 60.56463 | 45.02583 | 37136 ft | 517 kts | 46° |
| 2026-05-07 09:10 | 60.61096 | 45.13801 | 37134 ft | 517 kts | 46° |
| 2026-05-07 09:11 | 60.65717 | 45.25041 | 37137 ft | 518 kts | 46° |
| 2026-05-07 09:11 | 60.70332 | 45.36331 | 37134 ft | 518 kts | 46° |
| 2026-05-07 09:12 | 60.74939 | 45.47670 | 37139 ft | 519 kts | 46° |
| 2026-05-07 09:12 | 60.79563 | 45.59017 | 37144 ft | 519 kts | 46° |
| 2026-05-07 09:13 | 60.84188 | 45.70389 | 37140 ft | 519 kts | 46° |
| 2026-05-07 09:13 | 60.88806 | 45.81796 | 37140 ft | 520 kts | 46° |
| 2026-05-07 09:14 | 60.93420 | 45.93255 | 37134 ft | 520 kts | 46° |
| 2026-05-07 09:14 | 60.98025 | 46.04764 | 37132 ft | 521 kts | 47° |
| 2026-05-07 09:15 | 61.01874 | 46.14444 | 37134 ft | 521 kts | 47° |
| 2026-05-07 09:15 | 61.06422 | 46.25980 | 37138 ft | 522 kts | 47° |
| 2026-05-07 09:16 | 61.10967 | 46.37700 | 37139 ft | 522 kts | 47° |
| 2026-05-07 09:16 | 61.15491 | 46.49482 | 37141 ft | 522 kts | 47° |
| 2026-05-07 09:17 | 61.20014 | 46.61294 | 37138 ft | 523 kts | 47° |
| 2026-05-07 09:17 | 61.24529 | 46.73124 | 37139 ft | 523 kts | 47° |
| 2026-05-07 09:18 | 61.29031 | 46.85008 | 37146 ft | 523 kts | 47° |
| 2026-05-07 09:18 | 61.33518 | 46.96937 | 37143 ft | 523 kts | 48° |
| 2026-05-07 09:19 | 61.38000 | 47.08897 | 37140 ft | 523 kts | 48° |
| 2026-05-07 09:19 | 61.42476 | 47.20921 | 37138 ft | 523 kts | 48° |
| 2026-05-07 09:20 | 61.46927 | 47.32947 | 37144 ft | 523 kts | 48° |
| 2026-05-07 09:20 | 61.51382 | 47.45021 | 37143 ft | 524 kts | 48° |
| 2026-05-07 09:21 | 61.55817 | 47.57136 | 37139 ft | 524 kts | 48° |
| 2026-05-07 09:21 | 61.60236 | 47.69295 | 37138 ft | 524 kts | 48° |
| 2026-05-07 09:22 | 61.64649 | 47.81496 | 37139 ft | 524 kts | 49° |
| 2026-05-07 09:22 | 61.69045 | 47.93723 | 37137 ft | 524 kts | 49° |
| 2026-05-07 09:23 | 61.73438 | 48.06023 | 37132 ft | 525 kts | 49° |
| 2026-05-07 09:23 | 61.77816 | 48.18348 | 37140 ft | 525 kts | 49° |
| 2026-05-07 09:24 | 61.82187 | 48.30717 | 37136 ft | 525 kts | 49° |
| 2026-05-07 09:24 | 61.86556 | 48.43120 | 37136 ft | 525 kts | 49° |
| 2026-05-07 09:25 | 61.90920 | 48.55586 | 37132 ft | 526 kts | 49° |
| 2026-05-07 09:25 | 61.95267 | 48.68068 | 37129 ft | 526 kts | 49° |
| 2026-05-07 09:26 | 61.99606 | 48.80613 | 37127 ft | 526 kts | 49° |
| 2026-05-07 09:26 | 62.03937 | 48.93180 | 37130 ft | 526 kts | 49° |
| 2026-05-07 09:27 | 62.08246 | 49.05776 | 37126 ft | 526 kts | 50° |
| 2026-05-07 09:28 | 62.14700 | 49.24765 | 37126 ft | 526 kts | 50° |
| 2026-05-07 09:28 | 62.19023 | 49.37414 | 37128 ft | 526 kts | 49° |
| 2026-05-07 09:29 | 62.23333 | 49.50094 | 37130 ft | 526 kts | 50° |
| 2026-05-07 09:29 | 62.27618 | 49.62855 | 37123 ft | 526 kts | 50° |
| 2026-05-07 09:30 | 62.31883 | 49.75629 | 37121 ft | 526 kts | 50° |
| 2026-05-07 09:30 | 62.36148 | 49.88443 | 37122 ft | 526 kts | 50° |
| 2026-05-07 09:31 | 62.40406 | 50.01283 | 37120 ft | 526 kts | 50° |
| 2026-05-07 09:31 | 62.44640 | 50.14162 | 37117 ft | 526 kts | 50° |
| 2026-05-07 09:32 | 62.48864 | 50.27109 | 37115 ft | 526 kts | 50° |
| 2026-05-07 09:32 | 62.53070 | 50.40040 | 37115 ft | 526 kts | 50° |
| 2026-05-07 09:33 | 62.57284 | 50.53042 | 37110 ft | 526 kts | 50° |
| 2026-05-07 09:33 | 62.61514 | 50.65981 | 37113 ft | 525 kts | 50° |
| 2026-05-07 09:34 | 62.65747 | 50.78940 | 37110 ft | 525 kts | 50° |
| 2026-05-07 09:34 | 62.69954 | 50.91979 | 37112 ft | 526 kts | 50° |
| 2026-05-07 09:35 | 62.74125 | 51.05053 | 37109 ft | 526 kts | 51° |
| 2026-05-07 09:35 | 62.78290 | 51.18178 | 37110 ft | 526 kts | 51° |
| 2026-05-07 09:36 | 62.82450 | 51.31357 | 37107 ft | 526 kts | 51° |
| 2026-05-07 09:36 | 62.86584 | 51.44540 | 37106 ft | 526 kts | 51° |
| 2026-05-07 09:37 | 62.90715 | 51.57790 | 37105 ft | 526 kts | 51° |
| 2026-05-07 09:37 | 62.94828 | 51.71066 | 37107 ft | 526 kts | 51° |
| 2026-05-07 09:38 | 62.98696 | 51.83646 | 37109 ft | 526 kts | 51° |
| 2026-05-07 09:38 | 63.02780 | 51.96996 | 37106 ft | 525 kts | 51° |
| 2026-05-07 09:39 | 63.06863 | 52.10379 | 37107 ft | 525 kts | 51° |
| 2026-05-07 09:39 | 63.10922 | 52.23775 | 37103 ft | 525 kts | 52° |
| 2026-05-07 09:40 | 63.14968 | 52.37247 | 37098 ft | 525 kts | 52° |
| 2026-05-07 09:40 | 63.18994 | 52.50741 | 37105 ft | 525 kts | 52° |
| 2026-05-07 09:41 | 63.23000 | 52.64272 | 37096 ft | 525 kts | 52° |
| 2026-05-07 09:41 | 63.26989 | 52.77862 | 37092 ft | 525 kts | 52° |
| 2026-05-07 09:42 | 63.30958 | 52.91485 | 37096 ft | 525 kts | 52° |
| 2026-05-07 09:42 | 63.34921 | 53.05153 | 37094 ft | 525 kts | 53° |
| 2026-05-07 09:43 | 63.38878 | 53.18848 | 37093 ft | 525 kts | 53° |
| 2026-05-07 09:43 | 63.42826 | 53.32580 | 37094 ft | 525 kts | 53° |
| 2026-05-07 09:44 | 63.46761 | 53.46379 | 37091 ft | 526 kts | 53° |
| 2026-05-07 09:44 | 63.50670 | 53.60212 | 37088 ft | 526 kts | 53° |
| 2026-05-07 09:45 | 63.54574 | 53.74120 | 37082 ft | 526 kts | 53° |
| 2026-05-07 09:45 | 63.57867 | 53.88857 | 37082 ft | 531 kts | 64° |
| 2026-05-07 09:46 | 63.60770 | 54.04149 | 37077 ft | 532 kts | 64° |
| 2026-05-07 09:46 | 63.63658 | 54.19478 | 37075 ft | 532 kts | 64° |
| 2026-05-07 09:47 | 63.66532 | 54.34837 | 37074 ft | 532 kts | 64° |
| 2026-05-07 09:47 | 63.69386 | 54.50247 | 37075 ft | 533 kts | 64° |
| 2026-05-07 09:48 | 63.72224 | 54.65685 | 37073 ft | 533 kts | 64° |
| 2026-05-07 09:48 | 63.75032 | 54.81074 | 37069 ft | 533 kts | 64° |
| 2026-05-07 09:49 | 63.77840 | 54.96563 | 37067 ft | 533 kts | 65° |
| 2026-05-07 09:49 | 63.80178 | 55.09560 | 37068 ft | 533 kts | 65° |
| 2026-05-07 09:50 | 63.82946 | 55.25133 | 37067 ft | 533 kts | 65° |
| 2026-05-07 09:50 | 63.85706 | 55.40725 | 37070 ft | 532 kts | 65° |
| 2026-05-07 09:51 | 63.88469 | 55.56299 | 37069 ft | 532 kts | 65° |
| 2026-05-07 09:51 | 63.91213 | 55.71923 | 37064 ft | 532 kts | 65° |
| 2026-05-07 09:52 | 63.93927 | 55.87549 | 37053 ft | 532 kts | 65° |
| 2026-05-07 09:52 | 63.96616 | 56.03161 | 37055 ft | 532 kts | 65° |
| 2026-05-07 09:53 | 63.99295 | 56.18842 | 37052 ft | 531 kts | 66° |
| 2026-05-07 09:53 | 64.01978 | 56.34656 | 37054 ft | 531 kts | 66° |
| 2026-05-07 09:54 | 64.04618 | 56.50245 | 37048 ft | 531 kts | 66° |
| 2026-05-07 09:54 | 64.07284 | 56.66085 | 37048 ft | 530 kts | 66° |
| 2026-05-07 09:55 | 64.09901 | 56.81860 | 37044 ft | 530 kts | 66° |
| 2026-05-07 09:55 | 64.12507 | 56.97641 | 37040 ft | 530 kts | 66° |
| 2026-05-07 09:56 | 64.15081 | 57.13363 | 37039 ft | 530 kts | 67° |
| 2026-05-07 09:56 | 64.17668 | 57.29303 | 37035 ft | 530 kts | 67° |
| 2026-05-07 09:57 | 64.20204 | 57.45058 | 37034 ft | 530 kts | 67° |
| 2026-05-07 09:57 | 64.22759 | 57.61049 | 37033 ft | 529 kts | 67° |
| 2026-05-07 09:58 | 64.25261 | 57.76847 | 37030 ft | 529 kts | 68° |
| 2026-05-07 09:58 | 64.27771 | 57.92882 | 37027 ft | 529 kts | 68° |
| 2026-05-07 09:59 | 64.30254 | 58.08841 | 37022 ft | 529 kts | 68° |
| 2026-05-07 09:59 | 64.32716 | 58.24824 | 37021 ft | 529 kts | 68° |
| 2026-05-07 10:00 | 64.35162 | 58.40745 | 36761 ft | 529 kts | 68° |
| 2026-05-07 10:00 | 64.36405 | 58.48842 | 36998 ft | 528 kts | 68° |
| 2026-05-07 10:00 | 64.37628 | 58.56839 | 36993 ft | 528 kts | 68° |
| 2026-05-07 10:01 | 64.40070 | 58.72843 | 36993 ft | 528 kts | 68° |
| 2026-05-07 10:01 | 64.42477 | 58.88865 | 36987 ft | 528 kts | 69° |
| 2026-05-07 10:02 | 64.44869 | 59.04958 | 36978 ft | 528 kts | 69° |
| 2026-05-07 10:02 | 64.47247 | 59.21060 | 36982 ft | 529 kts | 69° |
| 2026-05-07 10:03 | 64.49611 | 59.37236 | 36978 ft | 529 kts | 69° |
| 2026-05-07 10:03 | 64.51952 | 59.53415 | 36970 ft | 529 kts | 69° |
| 2026-05-07 10:04 | 64.54280 | 59.69656 | 36959 ft | 530 kts | 69° |
| 2026-05-07 10:04 | 64.56596 | 59.85931 | 36954 ft | 530 kts | 69° |
| 2026-05-07 10:05 | 64.58892 | 60.02229 | 36941 ft | 530 kts | 70° |
| 2026-05-07 10:05 | 64.61172 | 60.18575 | 36939 ft | 531 kts | 70° |
| 2026-05-07 10:06 | 64.63435 | 60.34954 | 36927 ft | 531 kts | 70° |
| 2026-05-07 10:06 | 64.65704 | 60.51343 | 36925 ft | 530 kts | 70° |
| 2026-05-07 10:07 | 64.67971 | 60.67727 | 36920 ft | 530 kts | 70° |
| 2026-05-07 10:07 | 64.70212 | 60.84128 | 36916 ft | 530 kts | 70° |
| 2026-05-07 10:08 | 64.72436 | 61.00574 | 36916 ft | 530 kts | 70° |
| 2026-05-07 10:08 | 64.74641 | 61.17027 | 36907 ft | 529 kts | 71° |
| 2026-05-07 10:09 | 64.76721 | 61.32769 | 36901 ft | 529 kts | 71° |
| 2026-05-07 10:09 | 64.78884 | 61.49247 | 36906 ft | 528 kts | 71° |
| 2026-05-07 10:10 | 64.81022 | 61.65759 | 36904 ft | 528 kts | 71° |
| 2026-05-07 10:10 | 64.83141 | 61.82265 | 36913 ft | 528 kts | 71° |
| 2026-05-07 10:11 | 64.85242 | 61.98777 | 36911 ft | 528 kts | 72° |
| 2026-05-07 10:11 | 64.87325 | 62.15354 | 36913 ft | 527 kts | 72° |
| 2026-05-07 10:12 | 64.89399 | 62.31904 | 36913 ft | 527 kts | 72° |
| 2026-05-07 10:12 | 64.91445 | 62.48481 | 36919 ft | 527 kts | 72° |
| 2026-05-07 10:13 | 64.93456 | 62.65077 | 36916 ft | 526 kts | 73° |
| 2026-05-07 10:13 | 64.95458 | 62.81678 | 36915 ft | 526 kts | 72° |
| 2026-05-07 10:14 | 64.97448 | 62.98301 | 36909 ft | 526 kts | 73° |
| 2026-05-07 10:14 | 64.99418 | 63.14929 | 36908 ft | 525 kts | 73° |
| 2026-05-07 10:15 | 65.01365 | 63.31577 | 36903 ft | 525 kts | 73° |
| 2026-05-07 10:15 | 65.03292 | 63.48237 | 36906 ft | 525 kts | 73° |
| 2026-05-07 10:16 | 65.05204 | 63.64925 | 36896 ft | 525 kts | 73° |
| 2026-05-07 10:16 | 65.07090 | 63.81652 | 36897 ft | 525 kts | 74° |
| 2026-05-07 10:17 | 65.08957 | 63.98364 | 36889 ft | 524 kts | 74° |
| 2026-05-07 10:17 | 65.10810 | 64.15090 | 36892 ft | 524 kts | 74° |
| 2026-05-07 10:18 | 65.12637 | 64.31858 | 36886 ft | 524 kts | 75° |
| 2026-05-07 10:18 | 65.14444 | 64.48615 | 36891 ft | 524 kts | 75° |
| 2026-05-07 10:19 | 65.16240 | 64.65405 | 36882 ft | 523 kts | 75° |
| 2026-05-07 10:19 | 65.18011 | 64.82183 | 36881 ft | 523 kts | 75° |
| 2026-05-07 10:20 | 65.19763 | 64.99008 | 36875 ft | 523 kts | 75° |
| 2026-05-07 10:20 | 65.21497 | 65.15819 | 36873 ft | 523 kts | 75° |
| 2026-05-07 10:21 | 65.23214 | 65.32702 | 36869 ft | 523 kts | 76° |
| 2026-05-07 10:21 | 65.24907 | 65.49573 | 36869 ft | 523 kts | 76° |
| 2026-05-07 10:22 | 65.26578 | 65.66465 | 36859 ft | 523 kts | 76° |
| 2026-05-07 10:22 | 65.28220 | 65.83380 | 36861 ft | 523 kts | 76° |
| 2026-05-07 10:23 | 65.29845 | 66.00334 | 36849 ft | 522 kts | 76° |
| 2026-05-07 10:23 | 65.31186 | 66.14425 | 36852 ft | 522 kts | 77° |
| 2026-05-07 10:24 | 65.32779 | 66.31377 | 36842 ft | 522 kts | 77° |
| 2026-05-07 10:24 | 65.34349 | 66.48372 | 36843 ft | 522 kts | 77° |
| 2026-05-07 10:25 | 65.35892 | 66.65377 | 36832 ft | 522 kts | 77° |
| 2026-05-07 10:25 | 65.37443 | 66.82374 | 36837 ft | 521 kts | 77° |
| 2026-05-07 10:26 | 65.38994 | 66.99379 | 36823 ft | 521 kts | 77° |
| 2026-05-07 10:26 | 65.40520 | 67.16378 | 36823 ft | 521 kts | 77° |
| 2026-05-07 10:27 | 65.42025 | 67.33424 | 36816 ft | 521 kts | 78° |
| 2026-05-07 10:27 | 65.43495 | 67.50335 | 36820 ft | 520 kts | 78° |
| 2026-05-07 10:28 | 65.44965 | 67.67472 | 36808 ft | 520 kts | 78° |
| 2026-05-07 10:28 | 65.46407 | 67.84538 | 36807 ft | 520 kts | 78° |
| 2026-05-07 10:29 | 65.47825 | 68.01593 | 36797 ft | 520 kts | 78° |
| 2026-05-07 10:29 | 65.49220 | 68.18580 | 36797 ft | 520 kts | 78° |
| 2026-05-07 10:30 | 65.51290 | 68.44228 | 36789 ft | 520 kts | 79° |
| 2026-05-07 10:30 | 65.52650 | 68.61446 | 36785 ft | 520 kts | 79° |
| 2026-05-07 10:31 | 65.53981 | 68.78567 | 36776 ft | 519 kts | 79° |
| 2026-05-07 10:31 | 65.55292 | 68.95734 | 36776 ft | 519 kts | 79° |
| 2026-05-07 10:32 | 65.56590 | 69.12881 | 36769 ft | 519 kts | 79° |
| 2026-05-07 10:32 | 65.57869 | 69.30054 | 36772 ft | 519 kts | 80° |
| 2026-05-07 10:33 | 65.59121 | 69.47258 | 36770 ft | 519 kts | 80° |
| 2026-05-07 10:33 | 65.60358 | 69.64457 | 36766 ft | 519 kts | 80° |
| 2026-05-07 10:34 | 65.61581 | 69.81691 | 36759 ft | 519 kts | 80° |
| 2026-05-07 10:34 | 65.62781 | 69.98932 | 36761 ft | 519 kts | 81° |
| 2026-05-07 10:35 | 65.63956 | 70.16176 | 36755 ft | 519 kts | 81° |
| 2026-05-07 10:35 | 65.65113 | 70.33441 | 36752 ft | 519 kts | 81° |
| 2026-05-07 10:36 | 65.66248 | 70.50645 | 36745 ft | 519 kts | 81° |
| 2026-05-07 10:36 | 65.67347 | 70.67945 | 36744 ft | 519 kts | 82° |
| 2026-05-07 10:37 | 65.68376 | 70.85302 | 36737 ft | 519 kts | 82° |
| 2026-05-07 10:37 | 65.69364 | 71.02676 | 36740 ft | 519 kts | 82° |
| 2026-05-07 10:38 | 65.70346 | 71.20044 | 36731 ft | 519 kts | 82° |
| 2026-05-07 10:38 | 65.71318 | 71.37429 | 36730 ft | 519 kts | 82° |
| 2026-05-07 10:39 | 65.72267 | 71.54826 | 36722 ft | 519 kts | 83° |
| 2026-05-07 10:39 | 65.73198 | 71.72214 | 36721 ft | 519 kts | 83° |
| 2026-05-07 10:40 | 65.74103 | 71.89614 | 36713 ft | 518 kts | 83° |
| 2026-05-07 10:40 | 65.74984 | 72.06985 | 36713 ft | 518 kts | 83° |
| 2026-05-07 10:41 | 65.75847 | 72.24418 | 36693 ft | 518 kts | 83° |
| 2026-05-07 10:41 | 65.76273 | 72.33115 | 36558 ft | 516 kts | 83° |
| 2026-05-07 10:41 | 65.76692 | 72.41792 | 36422 ft | 515 kts | 83° |
| 2026-05-07 10:42 | 65.77104 | 72.50439 | 36141 ft | 513 kts | 84° |
| 2026-05-07 10:42 | 65.77510 | 72.59054 | 35879 ft | 511 kts | 84° |
| 2026-05-07 10:42 | 65.77911 | 72.67644 | 35599 ft | 509 kts | 84° |
| 2026-05-07 10:42 | 65.78309 | 72.76189 | 35523 ft | 506 kts | 85° |
| 2026-05-07 10:43 | 65.78705 | 72.84726 | 35104 ft | 507 kts | 85° |
| 2026-05-07 10:43 | 65.79094 | 72.93230 | 34522 ft | 506 kts | 85° |
| 2026-05-07 10:43 | 65.79474 | 73.01756 | 33852 ft | 506 kts | 85° |
| 2026-05-07 10:43 | 65.79846 | 73.10225 | 33113 ft | 496 kts | 85° |
| 2026-05-07 10:44 | 65.80208 | 73.18510 | 32373 ft | 488 kts | 85° |
| 2026-05-07 10:44 | 65.80559 | 73.26671 | 31645 ft | 481 kts | 86° |
| 2026-05-07 10:44 | 65.80899 | 73.34727 | 30938 ft | 474 kts | 86° |
| 2026-05-07 10:44 | 65.81231 | 73.42689 | 30246 ft | 469 kts | 86° |
| 2026-05-07 10:45 | 65.81553 | 73.50548 | 29556 ft | 466 kts | 86° |
| 2026-05-07 10:45 | 65.81872 | 73.58436 | 28736 ft | 468 kts | 86° |
| 2026-05-07 10:45 | 65.82186 | 73.66354 | 27934 ft | 469 kts | 86° |
| 2026-05-07 10:45 | 65.82492 | 73.74287 | 27161 ft | 469 kts | 86° |
| 2026-05-07 10:46 | 65.82793 | 73.82211 | 26398 ft | 469 kts | 86° |
| 2026-05-07 10:46 | 65.83089 | 73.90125 | 25660 ft | 468 kts | 86° |
| 2026-05-07 10:46 | 65.83380 | 73.98033 | 24938 ft | 466 kts | 86° |
| 2026-05-07 10:46 | 65.83665 | 74.05898 | 24238 ft | 464 kts | 86° |
| 2026-05-07 10:47 | 65.83946 | 74.13734 | 23547 ft | 462 kts | 86° |
| 2026-05-07 10:47 | 65.84222 | 74.21530 | 22802 ft | 459 kts | 86° |
| 2026-05-07 10:47 | 65.84492 | 74.29292 | 21961 ft | 457 kts | 86° |
| 2026-05-07 10:47 | 65.84748 | 74.36867 | 21144 ft | 446 kts | 86° |
| 2026-05-07 10:48 | 65.85008 | 74.44373 | 20247 ft | 433 kts | 84° |
| 2026-05-07 10:48 | 65.85631 | 74.51481 | 19392 ft | 422 kts | 74° |
| 2026-05-07 10:48 | 65.86397 | 74.58251 | 18569 ft | 413 kts | 74° |
| 2026-05-07 10:48 | 65.87156 | 74.64954 | 17714 ft | 405 kts | 74° |
| 2026-05-07 10:49 | 65.87902 | 74.71528 | 16799 ft | 397 kts | 73° |
| 2026-05-07 10:49 | 65.88632 | 74.77978 | 15893 ft | 390 kts | 73° |
| 2026-05-07 10:49 | 65.89352 | 74.84393 | 15003 ft | 383 kts | 73° |
| 2026-05-07 10:49 | 65.90047 | 74.90648 | 14148 ft | 377 kts | 73° |
| 2026-05-07 10:50 | 65.90719 | 74.96719 | 13329 ft | 372 kts | 73° |
| 2026-05-07 10:50 | 65.91391 | 75.02811 | 12327 ft | 368 kts | 73° |
| 2026-05-07 10:50 | 65.92049 | 75.08821 | 11324 ft | 364 kts | 72° |
| 2026-05-07 10:50 | 65.92691 | 75.14704 | 10378 ft | 359 kts | 71° |
| 2026-05-07 10:51 | 65.93328 | 75.20570 | 9431 ft | 353 kts | 70° |
| 2026-05-07 10:51 | 65.93953 | 75.26323 | 8411 ft | 346 kts | 70° |
| 2026-05-07 10:51 | 65.94563 | 75.31962 | 7417 ft | 340 kts | 70° |
| 2026-05-07 10:51 | 65.95159 | 75.37526 | 6405 ft | 334 kts | 69° |
| 2026-05-07 10:52 | 65.95739 | 75.42968 | 5570 ft | 325 kts | 69° |
| 2026-05-07 10:52 | 65.96306 | 75.48156 | 5051 ft | 305 kts | 67° |
| 2026-05-07 10:52 | 65.96897 | 75.52997 | 4545 ft | 288 kts | 65° |
| 2026-05-07 10:52 | 65.97495 | 75.57598 | 4032 ft | 278 kts | 64° |
| 2026-05-07 10:53 | 65.98087 | 75.62034 | 3519 ft | 273 kts | 64° |
| 2026-05-07 10:53 | 65.98671 | 75.66411 | 3009 ft | 268 kts | 64° |
| 2026-05-07 10:53 | 65.99213 | 75.70511 | 2533 ft | 263 kts | 64° |
| 2026-05-07 10:53 | 65.99769 | 75.74781 | 2064 ft | 260 kts | 63° |
| 2026-05-07 10:54 | 65.99952 | 75.76209 | 2014 ft | 259 kts | 63° |
| 2026-05-07 10:54 | 66.00216 | 75.78087 | 2411 ft | 219 kts | 56° |
| 2026-05-07 10:54 | 66.00683 | 75.80622 | 4183 ft | 177 kts | 52° |
| 2026-05-07 10:54 | 66.01154 | 75.83575 | 4747 ft | 203 kts | 61° |
| 2026-05-07 10:55 | 66.01698 | 75.87320 | 4126 ft | 254 kts | 54° |
| 2026-05-07 10:55 | 66.02634 | 75.91052 | 3371 ft | 260 kts | 48° |
| 2026-05-07 10:55 | 66.03690 | 75.94739 | 2612 ft | 267 kts | 46° |
| 2026-05-07 10:55 | 66.04791 | 75.98462 | 2075 ft | 265 kts | 46° |
| 2026-05-07 10:56 | 66.05833 | 76.02023 | 1964 ft | 248 kts | 46° |
| 2026-05-07 10:56 | 66.06790 | 76.05353 | 1966 ft | 228 kts | 45° |
| 2026-05-07 10:56 | 66.07667 | 76.08415 | 1963 ft | 209 kts | 44° |
| 2026-05-07 10:56 | 66.08456 | 76.11179 | 1957 ft | 193 kts | 44° |
| 2026-05-07 10:57 | 66.09202 | 76.13778 | 1959 ft | 178 kts | 43° |
| 2026-05-07 10:57 | 66.09877 | 76.16139 | 1983 ft | 160 kts | 42° |
| 2026-05-07 10:57 | 66.10381 | 76.18069 | 1953 ft | 150 kts | 49° |
| 2026-05-07 10:57 | 66.10689 | 76.20481 | 1942 ft | 147 kts | 65° |
| 2026-05-07 10:58 | 66.10713 | 76.22170 | 1926 ft | 153 kts | 82° |
| 2026-05-07 10:58 | 66.10443 | 76.24765 | 1979 ft | 160 kts | 90° |
| 2026-05-07 10:58 | 66.10133 | 76.27398 | 1936 ft | 160 kts | 90° |
| 2026-05-07 10:58 | 66.09806 | 76.30039 | 1884 ft | 161 kts | 91° |
| 2026-05-07 10:59 | 66.09473 | 76.32677 | 1705 ft | 161 kts | 92° |
| 2026-05-07 10:59 | 66.09137 | 76.35315 | 1508 ft | 161 kts | 92° |
| 2026-05-07 10:59 | 66.08802 | 76.37936 | 1265 ft | 160 kts | 94° |
| 2026-05-07 10:59 | 66.08466 | 76.40564 | 1036 ft | 161 kts | 96° |
| 2026-05-07 11:00 | 66.08221 | 76.42472 | 836 ft | 160 kts | 97° |
| 2026-05-07 11:00 | 66.07890 | 76.45145 | 603 ft | 161 kts | 98° |
| 2026-05-07 11:00 | 66.07587 | 76.47459 | 426 ft | 159 kts | 98° |
| 2026-05-07 11:00 | 66.07267 | 76.49872 | 230 ft | 159 kts | 100° |
| 2026-05-07 11:01 | 66.07018 | 76.51748 | 217 ft | 115 kts | 99° |
| 2026-05-07 11:01 | 66.06935 | 76.52777 | 221 ft | 88 kts | 107° |
| 2026-05-07 11:01 | 66.06768 | 76.53745 | 216 ft | 34 kts | 103° |
| 2026-05-07 11:01 | 66.06767 | 76.53839 | 224 ft | 3 kts | 68° |
| 2026-05-07 11:02 | 66.06790 | 76.53848 | 222 ft | 8 kts | 358° |
| 2026-05-07 11:02 | 66.06882 | 76.53876 | 216 ft | 19 kts | 18° |
| 2026-05-07 11:02 | 66.06940 | 76.53914 | 216 ft | 0 kts | 12° |
| 2026-05-07 11:02 | 66.06957 | 76.53888 | 216 ft | 8 kts | 308° |
| 2026-05-07 11:03 | 66.06993 | 76.53645 | 218 ft | 21 kts | 289° |
| 2026-05-07 11:03 | 66.07046 | 76.53239 | 218 ft | 27 kts | 288° |
| 2026-05-07 11:03 | 66.07104 | 76.52815 | 220 ft | 21 kts | 284° |
| 2026-05-07 11:03 | 66.07141 | 76.52636 | 216 ft | 7 kts | 339° |
| 2026-05-07 11:04 | 66.07161 | 76.52644 | 218 ft | 0 kts | 12° |